createdAt,value
2022-10-26T00:01:21.993Z,78.87
2022-10-26T00:03:49.984Z,79.22
2022-10-26T00:06:19.799Z,79.05
2022-10-26T00:08:49.837Z,78.88
2022-10-26T00:11:20.005Z,78.23
2022-10-26T00:13:48.591Z,77.46
2022-10-26T00:16:18.807Z,77.34
2022-10-26T00:18:46.657Z,78.12
2022-10-26T00:21:15.058Z,78.13
2022-10-26T00:23:42.839Z,78.51
2022-10-26T00:26:11.199Z,78.37
2022-10-26T00:28:40.673Z,78.27
2022-10-26T00:31:13.264Z,78.17
2022-10-26T00:33:41.053Z,77.71
2022-10-26T00:36:10.390Z,77.80
2022-10-26T00:38:38.256Z,77.20
2022-10-26T00:41:06.793Z,77.65
2022-10-26T00:43:36.772Z,77.07
2022-10-26T00:46:09.344Z,76.74
2022-10-26T00:48:40.331Z,77.29
2022-10-26T00:51:11.483Z,77.48
2022-10-26T00:53:39.818Z,76.76
2022-10-26T00:56:08.173Z,77.42
2022-10-26T00:58:37.180Z,76.80
2022-10-26T01:01:06.432Z,76.42
2022-10-26T01:03:36.785Z,76.58
2022-10-26T01:06:06.500Z,77.09
2022-10-26T01:08:35.165Z,77.50
2022-10-26T01:11:04.239Z,77.53
2022-10-26T01:13:35.786Z,76.91
2022-10-26T01:16:20.478Z,78.06
2022-10-26T01:18:58.955Z,77.47
2022-10-26T01:21:49.736Z,77.53
2022-10-26T01:24:47.307Z,76.43
2022-10-26T01:27:31.551Z,76.82
2022-10-26T01:30:29.905Z,76.25
2022-10-26T01:33:24.968Z,76.65
2022-10-26T01:36:04.209Z,76.33
2022-10-26T01:38:37.770Z,75.52
2022-10-26T01:41:12.985Z,74.98
2022-10-26T01:43:47.341Z,75.16
2022-10-26T01:46:20.975Z,75.82
2022-10-26T01:48:53.017Z,75.06
2022-10-26T01:51:22.169Z,75.24
2022-10-26T01:53:50.317Z,75.25
2022-10-26T01:56:22.193Z,75.62
2022-10-26T01:59:04.429Z,75.33
2022-10-26T02:01:51.465Z,75.75
2022-10-26T02:04:35.767Z,74.77
2022-10-26T02:07:10.060Z,74.98
2022-10-26T02:09:47.201Z,74.99
2022-10-26T02:12:24.129Z,74.17
2022-10-26T02:14:58.483Z,74.61
2022-10-26T02:17:30.665Z,75.04
2022-10-26T02:20:04.201Z,74.30
2022-10-26T02:22:36.031Z,74.25
2022-10-26T02:25:13.196Z,74.68
2022-10-26T02:27:45.652Z,75.30
2022-10-26T02:30:14.476Z,75.32
2022-10-26T02:32:48.032Z,75.79
2022-10-26T02:35:18.498Z,74.90
2022-10-26T02:37:49.157Z,75.41
2022-10-26T02:40:21.725Z,75.55
2022-10-26T02:42:53.705Z,75.17
2022-10-26T02:45:27.040Z,75.59
2022-10-26T02:47:57.160Z,76.11
2022-10-26T02:50:32.760Z,75.46
2022-10-26T02:53:08.772Z,75.37
2022-10-26T02:55:41.230Z,75.36
2022-10-26T02:58:15.965Z,76.17
2022-10-26T03:00:44.427Z,76.41
2022-10-26T03:03:14.773Z,77.06
2022-10-26T03:05:43.801Z,77.02
2022-10-26T03:08:11.924Z,76.66
2022-10-26T03:10:42.538Z,77.31
2022-10-26T03:13:11.456Z,76.39
2022-10-26T03:15:39.483Z,76.54
2022-10-26T03:18:07.997Z,76.55
2022-10-26T03:20:37.320Z,77.28
2022-10-26T03:23:05.114Z,76.13
2022-10-26T03:25:32.879Z,75.54
2022-10-26T03:28:02.381Z,75.50
2022-10-26T03:30:31.535Z,76.69
2022-10-26T03:32:59.415Z,76.05
2022-10-26T03:35:27.229Z,76.60
2022-10-26T03:37:56.479Z,75.85
2022-10-26T03:40:24.325Z,76.20
2022-10-26T03:42:52.469Z,76.28
2022-10-26T03:45:20.530Z,75.81
2022-10-26T03:47:49.779Z,75.99
2022-10-26T03:50:19.695Z,75.89
2022-10-26T03:52:48.811Z,75.65
2022-10-26T03:55:19.341Z,75.82
2022-10-26T03:57:47.156Z,74.96
2022-10-26T04:00:17.249Z,75.36
2022-10-26T04:02:46.925Z,75.84
2022-10-26T04:05:16.575Z,75.52
2022-10-26T04:07:44.620Z,75.19
2022-10-26T04:10:12.543Z,75.61
2022-10-26T04:12:41.735Z,76.06
2022-10-26T04:15:10.245Z,76.54
2022-10-26T04:17:38.048Z,75.95
2022-10-26T04:20:06.698Z,75.65
2022-10-26T04:22:35.128Z,75.67
2022-10-26T04:25:02.977Z,75.93
2022-10-26T04:27:30.781Z,76.19
2022-10-26T04:30:00.160Z,75.88
2022-10-26T04:32:28.066Z,75.72
2022-10-26T04:34:55.843Z,74.80
2022-10-26T04:37:23.639Z,76.16
2022-10-26T04:39:51.398Z,75.48
2022-10-26T04:42:19.161Z,75.26
2022-10-26T04:44:46.912Z,76.06
2022-10-26T04:47:16.025Z,77.34
2022-10-26T04:49:43.790Z,77.92
2022-10-26T04:52:11.557Z,77.26
2022-10-26T04:54:39.401Z,77.70
2022-10-26T04:57:07.310Z,76.62
2022-10-26T04:59:35.114Z,77.26
2022-10-26T05:02:03.079Z,76.92
2022-10-26T05:04:32.379Z,76.18
2022-10-26T05:07:00.153Z,76.63
2022-10-26T05:09:27.940Z,76.21
2022-10-26T05:11:55.691Z,75.86
2022-10-26T05:14:23.588Z,76.16
2022-10-26T05:16:51.819Z,75.91
2022-10-26T05:19:19.631Z,76.08
2022-10-26T05:21:48.752Z,75.76
2022-10-26T05:24:16.548Z,75.93
2022-10-26T05:26:44.520Z,75.84
2022-10-26T05:29:12.461Z,76.15
2022-10-26T05:31:40.292Z,75.41
2022-10-26T05:34:08.079Z,75.79
2022-10-26T05:36:35.819Z,75.84
2022-10-26T05:39:05.205Z,75.87
2022-10-26T05:41:32.952Z,75.61
2022-10-26T05:44:00.957Z,75.29
2022-10-26T05:46:28.738Z,75.66
2022-10-26T05:48:56.508Z,76.06
2022-10-26T05:51:24.260Z,75.86
2022-10-26T05:53:54.685Z,76.15
2022-10-26T05:56:36.614Z,76.00
2022-10-26T05:59:05.068Z,75.76
2022-10-26T06:01:48.842Z,75.02
2022-10-26T06:04:28.214Z,74.88
2022-10-26T06:06:58.520Z,75.68
2022-10-26T06:09:27.157Z,75.13
2022-10-26T06:11:57.097Z,75.76
2022-10-26T06:14:25.399Z,75.58
2022-10-26T06:17:07.822Z,75.26
2022-10-26T06:19:48.345Z,76.26
2022-10-26T06:22:29.401Z,75.96
2022-10-26T06:25:05.289Z,75.44
2022-10-26T06:27:44.826Z,76.24
2022-10-26T06:30:13.166Z,75.29
2022-10-26T06:32:42.501Z,75.39
2022-10-26T06:35:25.196Z,75.81
2022-10-26T06:37:55.360Z,76.22
2022-10-26T06:40:24.869Z,76.79
2022-10-26T06:42:54.661Z,76.30
2022-10-26T06:45:23.289Z,76.05
2022-10-26T06:47:58.375Z,75.88
2022-10-26T06:50:37.645Z,76.21
2022-10-26T06:53:22.209Z,75.90
2022-10-26T06:55:51.772Z,76.37
2022-10-26T06:58:24.204Z,75.63
2022-10-26T07:00:54.883Z,75.85
2022-10-26T07:03:22.720Z,75.87
2022-10-26T07:05:50.806Z,75.45
2022-10-26T07:08:18.841Z,76.10
2022-10-26T07:10:48.014Z,75.27
2022-10-26T07:13:15.941Z,75.28
2022-10-26T07:15:45.117Z,75.08
2022-10-26T07:18:12.907Z,75.71
2022-10-26T07:20:42.909Z,75.43
2022-10-26T07:23:11.905Z,75.94
2022-10-26T07:25:40.648Z,75.87
2022-10-26T07:28:10.153Z,75.58
2022-10-26T07:30:39.249Z,75.91
2022-10-26T07:33:10.572Z,75.74
2022-10-26T07:35:38.673Z,75.73
2022-10-26T07:38:07.168Z,76.42
2022-10-26T07:40:35.700Z,76.26
2022-10-26T07:43:03.468Z,75.93
2022-10-26T07:45:31.636Z,76.32
2022-10-26T07:47:59.416Z,76.24
2022-10-26T07:50:28.559Z,76.10
2022-10-26T07:52:56.332Z,76.06
2022-10-26T07:55:24.213Z,76.65
2022-10-26T07:57:54.712Z,76.18
2022-10-26T08:00:23.383Z,76.77
2022-10-26T08:02:51.180Z,77.19
2022-10-26T08:05:19.347Z,77.45
2022-10-26T08:07:49.074Z,77.00
2022-10-26T08:10:17.546Z,77.15
2022-10-26T08:12:45.448Z,77.25
2022-10-26T08:15:13.268Z,77.62
2022-10-26T08:17:41.033Z,77.67
2022-10-26T08:20:09.977Z,77.35
2022-10-26T08:22:37.737Z,77.26
2022-10-26T08:25:07.464Z,77.41
2022-10-26T08:27:35.258Z,77.39
2022-10-26T08:30:03.041Z,76.92
2022-10-26T08:32:30.876Z,77.18
2022-10-26T08:34:58.632Z,76.66
2022-10-26T08:37:28.241Z,76.53
2022-10-26T08:39:57.489Z,76.42
2022-10-26T08:42:34.896Z,76.67
2022-10-26T08:45:08.605Z,76.38
2022-10-26T08:47:43.090Z,76.30
2022-10-26T08:50:15.415Z,76.19
2022-10-26T08:52:50.949Z,76.54
2022-10-26T08:55:23.468Z,77.01
2022-10-26T08:57:54.521Z,77.23
2022-10-26T09:00:24.565Z,77.21
2022-10-26T09:02:53.469Z,76.64
2022-10-26T09:05:28.740Z,76.51
2022-10-26T09:08:06.133Z,76.43
2022-10-26T09:10:40.932Z,76.29
2022-10-26T09:13:24.745Z,76.00
2022-10-26T09:16:03.457Z,76.03
2022-10-26T09:18:42.502Z,75.75
2022-10-26T09:21:17.209Z,75.44
2022-10-26T09:23:57.039Z,75.40
2022-10-26T09:26:33.492Z,74.92
2022-10-26T09:29:06.608Z,75.05
2022-10-26T09:31:43.971Z,74.70
2022-10-26T09:34:21.475Z,74.98
2022-10-26T09:36:54.189Z,74.90
2022-10-26T09:39:29.686Z,75.00
2022-10-26T09:42:01.273Z,74.74
2022-10-26T09:44:35.678Z,74.93
2022-10-26T09:47:07.655Z,74.82
2022-10-26T09:49:42.712Z,75.21
2022-10-26T09:54:39.465Z,75.09
2022-10-26T09:57:08.829Z,75.00
2022-10-26T09:59:41.139Z,74.92
2022-10-26T10:02:35.540Z,74.76
2022-10-26T10:05:32.574Z,74.68
2022-10-26T10:08:19.075Z,74.54
2022-10-26T10:10:56.154Z,74.90
2022-10-26T10:13:26.765Z,74.71
2022-10-26T10:15:58.688Z,74.50
2022-10-26T10:18:26.716Z,74.29
2022-10-26T10:20:57.565Z,74.00
2022-10-26T10:23:28.996Z,73.74
2022-10-26T10:26:06.043Z,73.31
2022-10-26T10:28:35.134Z,73.08
2022-10-26T10:31:06.368Z,72.76
2022-10-26T10:33:39.611Z,72.77
2022-10-26T10:36:11.463Z,72.35
2022-10-26T10:38:41.777Z,72.48
2022-10-26T10:41:18.172Z,72.30
2022-10-26T10:43:49.861Z,71.97
2022-10-26T10:46:25.695Z,72.13
2022-10-26T10:49:01.775Z,71.94
2022-10-26T10:51:31.613Z,71.96
2022-10-26T10:53:59.440Z,72.36
2022-10-26T10:56:35.400Z,72.13
2022-10-26T10:59:22.386Z,71.72
2022-10-26T11:01:59.046Z,71.81
2022-10-26T11:04:45.828Z,71.60
2022-10-26T11:07:16.273Z,71.88
2022-10-26T11:09:47.836Z,71.12
2022-10-26T11:12:19.960Z,70.84
2022-10-26T11:14:53.711Z,70.49
2022-10-26T11:17:26.882Z,69.78
2022-10-26T11:19:58.653Z,69.82
2022-10-26T11:22:30.104Z,69.28
2022-10-26T11:25:01.569Z,69.45
2022-10-26T11:27:35.184Z,69.25
2022-10-26T11:30:06.952Z,69.26
2022-10-26T11:32:44.321Z,69.25
2022-10-26T11:35:17.901Z,69.65
2022-10-26T11:37:50.884Z,69.43
2022-10-26T11:40:29.318Z,70.04
2022-10-26T11:43:06.422Z,69.84
2022-10-26T11:45:37.101Z,70.19
2022-10-26T11:48:15.862Z,70.66
2022-10-26T11:50:47.580Z,70.59
2022-10-26T11:53:18.726Z,71.18
2022-10-26T11:55:52.246Z,71.59
2022-10-26T11:58:23.945Z,71.62
2022-10-26T12:00:57.690Z,72.34
2022-10-26T12:03:29.470Z,72.24
2022-10-26T12:05:57.315Z,72.05
2022-10-26T12:08:28.332Z,72.39
2022-10-26T12:11:03.435Z,72.59
2022-10-26T12:13:37.915Z,72.71
2022-10-26T12:16:12.660Z,72.62
2022-10-26T12:18:55.584Z,72.57
2022-10-26T12:21:27.191Z,72.17
2022-10-26T12:23:56.589Z,72.52
2022-10-26T12:26:57.353Z,72.36
2022-10-26T12:29:47.253Z,72.37
2022-10-26T12:32:51.638Z,72.43
2022-10-26T12:35:54.813Z,72.90
2022-10-26T12:39:00.092Z,73.70
2022-10-26T12:41:29.086Z,73.65
2022-10-26T12:43:59.178Z,73.52
2022-10-26T12:46:42.495Z,73.46
2022-10-26T12:49:58.195Z,73.67
2022-10-26T12:52:40.788Z,73.74
2022-10-26T12:55:49.936Z,73.82
2022-10-26T12:58:54.166Z,73.70
2022-10-26T13:04:51.243Z,74.21
2022-10-26T13:07:21.892Z,74.42
2022-10-26T13:09:58.887Z,74.21
2022-10-26T13:12:28.351Z,74.18
2022-10-26T13:15:01.472Z,74.33
2022-10-26T13:17:32.422Z,74.04
2022-10-26T13:20:02.128Z,73.92
2022-10-26T13:22:31.004Z,73.79
2022-10-26T13:25:03.120Z,73.44
2022-10-26T13:27:44.895Z,73.46
2022-10-26T13:30:43.881Z,73.78
2022-10-26T13:33:37.782Z,73.81
2022-10-26T13:36:16.673Z,73.91
2022-10-26T13:38:47.229Z,73.93
2022-10-26T13:41:23.863Z,74.51
2022-10-26T13:43:53.182Z,74.51
2022-10-26T13:46:28.424Z,74.94
2022-10-26T13:49:04.810Z,74.96
2022-10-26T13:51:41.886Z,75.40
2022-10-26T13:54:21.666Z,75.91
2022-10-26T13:57:03.219Z,76.07
2022-10-26T13:59:34.301Z,76.38
2022-10-26T14:02:15.743Z,76.92
2022-10-26T14:04:47.162Z,77.17
2022-10-26T14:07:22.751Z,77.48
2022-10-26T14:09:52.655Z,77.65
2022-10-26T14:12:22.436Z,78.00
2022-10-26T14:14:51.434Z,77.88
2022-10-26T14:17:25.534Z,78.24
2022-10-26T14:19:54.200Z,78.19
2022-10-26T14:22:25.270Z,78.81
2022-10-26T14:27:27.560Z,78.71
2022-10-26T14:32:44.285Z,79.51
2022-10-26T14:35:13.613Z,79.16
2022-10-26T14:37:46.552Z,79.77
2022-10-26T14:40:18.218Z,80.16
2022-10-26T14:42:51.289Z,80.33
2022-10-26T14:45:43.334Z,80.63
2022-10-26T14:48:21.892Z,80.61
2022-10-26T14:51:00.397Z,80.41
2022-10-26T14:53:35.423Z,80.72
2022-10-26T14:56:05.095Z,81.04
2022-10-26T14:58:35.252Z,81.12
2022-10-26T15:01:16.185Z,81.21
2022-10-26T15:03:45.409Z,81.20
2022-10-26T15:06:34.224Z,81.16
2022-10-26T15:09:04.614Z,81.67
2022-10-26T15:11:34.488Z,81.79
2022-10-26T15:14:04.176Z,81.64
2022-10-26T15:16:35.987Z,81.85
2022-10-26T15:19:10.302Z,81.87
2022-10-26T15:21:41.112Z,82.12
2022-10-26T15:24:27.490Z,82.98
2022-10-26T15:26:55.710Z,83.22
2022-10-26T15:29:39.302Z,83.45
2022-10-26T15:32:20.489Z,83.92
2022-10-26T15:34:50.739Z,83.87
2022-10-26T15:37:19.816Z,84.16
2022-10-26T15:39:47.940Z,84.58
2022-10-26T15:42:15.850Z,84.40
2022-10-26T15:44:44.968Z,84.51
2022-10-26T15:47:19.399Z,84.95
2022-10-26T15:49:47.252Z,84.77
2022-10-26T15:52:15.145Z,84.98
2022-10-26T15:54:42.967Z,85.36
2022-10-26T15:57:16.708Z,84.84
2022-10-26T15:59:48.380Z,85.18
2022-10-26T16:02:17.405Z,85.44
2022-10-26T16:04:45.353Z,85.56
2022-10-26T16:07:14.363Z,85.38
2022-10-26T16:09:43.077Z,86.07
2022-10-26T16:12:11.892Z,85.60
2022-10-26T16:15:00.593Z,85.84
2022-10-26T16:17:29.112Z,85.63
2022-10-26T16:19:56.876Z,85.96
2022-10-26T16:22:25.037Z,85.90
2022-10-26T16:24:52.813Z,85.84
2022-10-26T16:27:20.598Z,85.80
2022-10-26T16:29:48.494Z,85.78
2022-10-26T16:32:16.298Z,86.76
2022-10-26T16:34:45.510Z,86.51
2022-10-26T16:37:13.251Z,86.50
2022-10-26T16:39:41.010Z,86.77
2022-10-26T16:42:08.780Z,86.59
2022-10-26T16:44:37.908Z,86.66
2022-10-26T16:47:05.839Z,87.01
2022-10-26T16:49:34.166Z,87.32
2022-10-26T16:52:04.292Z,87.45
2022-10-26T16:54:32.069Z,87.55
2022-10-26T16:56:59.841Z,87.41
2022-10-26T16:59:27.701Z,87.18
2022-10-26T17:01:55.606Z,87.29
2022-10-26T17:04:23.566Z,87.33
2022-10-26T17:06:51.730Z,87.38
2022-10-26T17:09:20.945Z,87.50
2022-10-26T17:11:48.888Z,87.83
2022-10-26T17:14:17.224Z,88.08
2022-10-26T17:16:44.967Z,88.03
2022-10-26T17:19:12.975Z,88.23
2022-10-26T17:21:40.729Z,88.09
2022-10-26T17:24:08.713Z,88.20
2022-10-26T17:26:37.876Z,88.14
2022-10-26T17:29:05.759Z,87.93
2022-10-26T17:31:34.235Z,88.11
2022-10-26T17:34:02.324Z,88.11
2022-10-26T17:36:31.639Z,87.84
2022-10-26T17:39:00.765Z,87.98
2022-10-26T17:41:28.732Z,87.58
2022-10-26T17:43:58.045Z,87.58
2022-10-26T17:46:27.922Z,87.31
2022-10-26T17:48:56.395Z,87.21
2022-10-26T17:51:24.785Z,87.11
2022-10-26T17:53:52.756Z,87.07
2022-10-26T17:56:22.195Z,87.18
2022-10-26T17:58:53.688Z,86.81
2022-10-26T18:01:23.495Z,87.15
2022-10-26T18:03:51.458Z,86.87
2022-10-26T18:06:19.357Z,86.90
2022-10-26T18:08:47.285Z,86.95
2022-10-26T18:11:18.575Z,86.98
2022-10-26T18:13:48.537Z,86.76
2022-10-26T18:16:19.053Z,86.43
2022-10-26T18:18:50.072Z,86.24
2022-10-26T18:21:19.529Z,86.79
2022-10-26T18:23:47.956Z,86.74
2022-10-26T18:26:18.612Z,86.21
2022-10-26T18:28:47.070Z,86.44
2022-10-26T18:31:16.805Z,86.55
2022-10-26T18:33:44.936Z,86.55
2022-10-26T18:36:15.627Z,86.52
2022-10-26T18:38:44.438Z,86.69
2022-10-26T18:41:14.161Z,86.73
2022-10-26T18:43:42.699Z,86.48
2022-10-26T18:46:14.155Z,86.60
2022-10-26T18:48:44.365Z,87.17
2022-10-26T18:51:15.204Z,86.94
2022-10-26T18:53:44.636Z,86.90
2022-10-26T18:56:14.101Z,86.75
2022-10-26T18:58:43.760Z,86.39
2022-10-26T19:01:13.421Z,86.64
2022-10-26T19:03:42.359Z,86.57
2022-10-26T19:06:12.339Z,86.33
2022-10-26T19:08:42.510Z,86.01
2022-10-26T19:11:12.566Z,86.03
2022-10-26T19:13:40.515Z,86.53
2022-10-26T19:16:21.718Z,87.13
2022-10-26T19:18:58.993Z,86.98
2022-10-26T19:21:28.169Z,87.50
2022-10-26T19:23:59.404Z,88.09
2022-10-26T19:26:33.381Z,88.32
2022-10-26T19:29:05.881Z,88.45
2022-10-26T19:31:35.620Z,88.52
2022-10-26T19:34:04.400Z,88.28
2022-10-26T19:36:32.208Z,88.13
2022-10-26T19:39:02.014Z,88.07
2022-10-26T19:41:31.298Z,87.70
2022-10-26T19:46:32.781Z,87.05
2022-10-26T19:49:02.482Z,86.58
2022-10-26T19:51:32.131Z,86.18
2022-10-26T19:54:03.762Z,85.90
2022-10-26T19:56:32.431Z,85.75
2022-10-26T19:59:00.977Z,85.40
2022-10-26T20:01:29.145Z,85.12
2022-10-26T20:03:57.208Z,84.95
2022-10-26T20:06:25.054Z,85.21
2022-10-26T20:08:52.836Z,85.32
2022-10-26T20:11:21.976Z,85.30
2022-10-26T20:13:49.788Z,85.24
2022-10-26T20:16:18.615Z,85.08
2022-10-26T20:18:48.976Z,84.94
2022-10-26T20:21:18.324Z,85.02
2022-10-26T20:23:46.412Z,84.79
2022-10-26T20:26:18.449Z,84.65
2022-10-26T20:28:51.285Z,84.24
2022-10-26T20:31:19.700Z,84.11
2022-10-26T20:33:51.436Z,83.97
2022-10-26T20:36:19.269Z,83.92
2022-10-26T20:38:47.594Z,84.22
2022-10-26T20:41:15.912Z,83.94
2022-10-26T20:43:44.341Z,84.04
2022-10-26T20:46:21.800Z,83.89
2022-10-26T20:48:50.365Z,84.39
2022-10-26T20:51:23.808Z,84.46
2022-10-26T20:54:04.470Z,84.34
2022-10-26T20:56:34.840Z,84.39
2022-10-26T20:59:04.983Z,84.36
2022-10-26T21:01:38.135Z,84.70
2022-10-26T21:04:06.235Z,84.80
2022-10-26T21:06:40.058Z,84.57
2022-10-26T21:09:08.994Z,84.65
2022-10-26T21:11:36.804Z,84.54
2022-10-26T21:14:06.363Z,85.05
2022-10-26T21:16:35.678Z,84.88
2022-10-26T21:19:04.921Z,85.09
2022-10-26T21:21:33.145Z,85.35
2022-10-26T21:24:02.371Z,85.36
2022-10-26T21:26:30.481Z,85.37
2022-10-26T21:28:58.288Z,85.59
2022-10-26T21:31:26.132Z,85.10
2022-10-26T21:33:55.321Z,85.38
2022-10-26T21:36:23.140Z,85.07
2022-10-26T21:38:50.887Z,85.38
2022-10-26T21:41:20.649Z,85.72
2022-10-26T21:43:55.959Z,85.53
2022-10-26T21:46:31.449Z,85.81
2022-10-26T21:49:00.524Z,85.55
2022-10-26T21:51:28.320Z,85.81
2022-10-26T21:53:56.079Z,85.67
2022-10-26T21:56:23.939Z,85.71
2022-10-26T21:58:51.687Z,85.72
2022-10-26T22:01:21.226Z,85.45
2022-10-26T22:03:49.717Z,85.77
2022-10-26T22:06:23.485Z,85.83
2022-10-26T22:08:51.305Z,85.74
2022-10-26T22:11:21.105Z,85.75
2022-10-26T22:13:50.385Z,86.08
2022-10-26T22:16:20.880Z,86.07
2022-10-26T22:18:50.103Z,86.22
2022-10-26T22:21:19.476Z,86.60
2022-10-26T22:23:48.888Z,87.32
2022-10-26T22:26:19.503Z,86.76
2022-10-26T22:28:48.612Z,87.36
2022-10-26T22:31:18.955Z,88.34
2022-10-26T22:33:46.846Z,89.34
2022-10-26T22:36:16.898Z,89.34
2022-10-26T22:38:45.443Z,89.59
2022-10-26T22:41:14.532Z,89.43
2022-10-26T22:43:42.325Z,89.62
2022-10-26T22:46:13.992Z,89.52
2022-10-26T22:48:42.213Z,89.72
2022-10-26T22:51:12.392Z,88.77
2022-10-26T22:53:40.271Z,88.39
2022-10-26T22:56:10.239Z,89.26
2022-10-26T22:58:40.620Z,90.03
2022-10-26T23:01:10.346Z,89.59
2022-10-26T23:03:38.463Z,89.19
2022-10-26T23:06:08.542Z,89.50
2022-10-26T23:08:36.418Z,89.50
2022-10-26T23:11:06.824Z,89.65
2022-10-26T23:13:35.015Z,89.12
2022-10-26T23:16:07.743Z,89.35
2022-10-26T23:18:36.055Z,89.17
2022-10-26T23:21:05.016Z,89.01
2022-10-26T23:23:33.084Z,88.81
2022-10-26T23:26:01.859Z,88.68
2022-10-26T23:28:30.114Z,88.67
2022-10-26T23:30:58.241Z,88.81
2022-10-26T23:33:27.601Z,88.63
2022-10-26T23:35:55.393Z,88.57
2022-10-26T23:38:23.153Z,88.23
2022-10-26T23:40:52.181Z,88.33
2022-10-26T23:43:20.205Z,88.33
2022-10-26T23:45:48.200Z,87.78
2022-10-26T23:48:17.019Z,88.31
2022-10-26T23:50:47.497Z,88.00
2022-10-26T23:53:16.282Z,87.94
2022-10-26T23:55:44.429Z,87.83
2022-10-26T23:58:12.983Z,87.91
